createdAt,value
2022-09-16T00:00:22.141Z,12.00
2022-09-16T00:01:22.144Z,12.01
2022-09-16T00:02:22.218Z,11.87
2022-09-16T00:03:22.115Z,12.00
2022-09-16T00:04:22.102Z,11.94
2022-09-16T00:05:22.103Z,11.93
2022-09-16T00:06:22.086Z,11.93
2022-09-16T00:07:22.143Z,11.94
2022-09-16T00:08:22.064Z,12.01
2022-09-16T00:09:22.052Z,11.93
2022-09-16T00:10:22.041Z,11.90
2022-09-16T00:11:22.031Z,11.93
2022-09-16T00:12:22.019Z,11.96
2022-09-16T00:13:22.045Z,11.96
2022-09-16T00:14:22.001Z,11.93
2022-09-16T00:15:21.994Z,11.85
2022-09-16T00:16:22.022Z,11.90
2022-09-16T00:17:21.975Z,11.82
2022-09-16T00:18:22.002Z,11.88
2022-09-16T00:19:21.951Z,11.85
2022-09-16T00:20:21.942Z,11.87
2022-09-16T00:21:21.932Z,11.87
2022-09-16T00:22:21.909Z,11.78
2022-09-16T00:23:21.909Z,11.77
2022-09-16T00:24:21.931Z,11.82
2022-09-16T00:25:21.928Z,11.75
2022-09-16T00:26:21.879Z,11.87
2022-09-16T00:27:21.877Z,11.81
2022-09-16T00:28:21.860Z,11.84
2022-09-16T00:29:21.881Z,11.79
2022-09-16T00:30:21.840Z,11.77
2022-09-16T00:31:21.863Z,11.78
2022-09-16T00:32:21.819Z,11.85
2022-09-16T00:33:21.814Z,11.78
2022-09-16T00:34:21.799Z,11.87
2022-09-16T00:35:21.827Z,11.75
2022-09-16T00:36:21.779Z,11.85
2022-09-16T00:37:21.769Z,11.77
2022-09-16T00:38:21.758Z,11.79
2022-09-16T00:39:21.749Z,11.69
2022-09-16T00:40:21.801Z,11.70
2022-09-16T00:41:21.728Z,11.72
2022-09-16T00:42:21.718Z,11.77
2022-09-16T00:43:21.711Z,11.88
2022-09-16T00:44:21.701Z,11.81
2022-09-16T00:45:21.687Z,11.85
2022-09-16T00:46:21.760Z,11.82
2022-09-16T00:47:21.674Z,11.88
2022-09-16T00:48:21.657Z,11.78
2022-09-16T00:49:21.650Z,11.84
2022-09-16T00:50:21.639Z,11.77
2022-09-16T00:51:21.660Z,11.79
2022-09-16T00:52:21.621Z,11.77
2022-09-16T00:53:21.613Z,11.75
2022-09-16T00:54:21.602Z,11.64
2022-09-16T00:55:21.596Z,11.67
2022-09-16T00:56:21.586Z,11.74
2022-09-16T00:57:21.646Z,11.77
2022-09-16T00:58:21.563Z,11.69
2022-09-16T00:59:21.554Z,11.70
2022-09-16T01:00:21.547Z,11.66
2022-09-16T01:01:21.567Z,11.64
2022-09-16T01:02:21.631Z,11.64
2022-09-16T01:03:21.517Z,11.66
2022-09-16T01:04:21.505Z,11.57
2022-09-16T01:05:21.494Z,11.56
2022-09-16T01:06:21.483Z,11.54
2022-09-16T01:07:21.475Z,11.48
2022-09-16T01:08:21.541Z,11.56
2022-09-16T01:09:21.453Z,11.56
2022-09-16T01:10:21.440Z,11.46
2022-09-16T01:11:21.425Z,11.46
2022-09-16T01:12:22.433Z,11.49
2022-09-16T01:13:21.454Z,11.49
2022-09-16T01:14:21.405Z,11.45
2022-09-16T01:15:21.395Z,11.57
2022-09-16T01:16:21.414Z,11.53
2022-09-16T01:17:21.371Z,11.60
2022-09-16T01:18:21.368Z,11.60
2022-09-16T01:19:21.397Z,11.57
2022-09-16T01:20:21.345Z,11.48
2022-09-16T01:21:21.340Z,11.46
2022-09-16T01:22:21.323Z,11.51
2022-09-16T01:23:21.319Z,11.56
2022-09-16T01:24:21.330Z,11.45
2022-09-16T01:25:21.294Z,11.53
2022-09-16T01:26:21.285Z,11.49
2022-09-16T01:27:21.273Z,11.45
2022-09-16T01:28:21.258Z,11.48
2022-09-16T01:29:21.249Z,11.49
2022-09-16T01:30:21.275Z,11.48
2022-09-16T01:31:21.266Z,11.44
2022-09-16T01:32:21.224Z,11.46
2022-09-16T01:33:21.209Z,11.48
2022-09-16T01:34:21.200Z,11.46
2022-09-16T01:35:21.212Z,11.48
2022-09-16T01:36:22.179Z,11.42
2022-09-16T01:37:21.170Z,11.44
2022-09-16T01:38:21.161Z,11.33
2022-09-16T01:39:21.149Z,11.38
2022-09-16T01:40:21.199Z,11.39
2022-09-16T01:41:21.161Z,11.39
2022-09-16T01:42:21.127Z,11.31
2022-09-16T01:43:21.111Z,11.41
2022-09-16T01:44:21.101Z,11.38
2022-09-16T01:45:21.090Z,11.33
2022-09-16T01:46:21.138Z,11.36
2022-09-16T01:47:21.069Z,11.33
2022-09-16T01:48:21.069Z,11.36
2022-09-16T01:49:21.049Z,11.42
2022-09-16T01:50:21.042Z,11.41
2022-09-16T01:51:21.031Z,11.41
2022-09-16T01:52:21.051Z,11.41
2022-09-16T01:53:21.013Z,11.33
2022-09-16T01:54:20.997Z,11.31
2022-09-16T01:55:20.991Z,11.38
2022-09-16T01:56:20.976Z,11.35
2022-09-16T01:57:21.001Z,11.38
2022-09-16T01:58:20.956Z,11.39
2022-09-16T01:59:20.940Z,11.38
2022-09-16T02:00:21.938Z,11.41
2022-09-16T02:01:20.971Z,11.44
2022-09-16T02:02:21.188Z,11.38
2022-09-16T02:03:20.944Z,11.26
2022-09-16T02:04:20.895Z,11.31
2022-09-16T02:05:52.788Z,11.28
2022-09-16T02:06:20.874Z,11.36
2022-09-16T02:07:20.868Z,11.33
2022-09-16T02:08:20.936Z,11.42
2022-09-16T02:09:20.851Z,11.46
2022-09-16T02:10:20.836Z,11.42
2022-09-16T02:11:20.830Z,11.46
2022-09-16T02:12:20.821Z,11.46
2022-09-16T02:13:20.811Z,11.45
2022-09-16T02:14:20.829Z,11.45
2022-09-16T02:15:20.792Z,11.46
2022-09-16T02:16:20.830Z,11.51
2022-09-16T02:17:20.770Z,11.49
2022-09-16T02:18:20.754Z,11.49
2022-09-16T02:19:20.777Z,11.56
2022-09-16T02:20:20.738Z,11.63
2022-09-16T02:21:20.769Z,11.59
2022-09-16T02:22:20.720Z,11.69
2022-09-16T02:23:20.710Z,11.59
2022-09-16T02:24:20.701Z,11.64
2022-09-16T02:25:20.727Z,11.66
2022-09-16T02:26:20.677Z,11.63
2022-09-16T02:27:20.668Z,11.64
2022-09-16T02:28:20.666Z,11.63
2022-09-16T02:29:20.645Z,11.63
2022-09-16T02:30:20.684Z,11.66
2022-09-16T02:31:20.697Z,11.66
2022-09-16T02:32:20.616Z,11.70
2022-09-16T02:33:20.602Z,11.75
2022-09-16T02:34:20.603Z,11.85
2022-09-16T02:35:20.592Z,11.81
2022-09-16T02:36:20.607Z,11.78
2022-09-16T02:37:20.573Z,11.93
2022-09-16T02:38:20.565Z,11.84
2022-09-16T02:39:20.555Z,11.85
2022-09-16T02:40:20.571Z,11.72
2022-09-16T02:41:20.587Z,11.88
2022-09-16T02:42:20.579Z,11.79
2022-09-16T02:43:20.527Z,11.84
2022-09-16T02:44:20.496Z,11.77
2022-09-16T02:45:20.496Z,11.78
2022-09-16T02:46:20.536Z,11.75
2022-09-16T02:47:20.496Z,11.82
2022-09-16T02:48:20.460Z,11.77
2022-09-16T02:49:20.454Z,11.77
2022-09-16T02:50:20.440Z,11.72
2022-09-16T02:51:20.433Z,11.84
2022-09-16T02:52:20.446Z,11.70
2022-09-16T02:53:20.407Z,11.78
2022-09-16T02:54:20.403Z,11.78
2022-09-16T02:55:20.380Z,11.74
2022-09-16T02:56:21.380Z,11.70
2022-09-16T02:57:20.373Z,11.79
2022-09-16T02:58:20.389Z,11.84
2022-09-16T02:59:20.345Z,11.75
2022-09-16T03:00:20.339Z,11.70
2022-09-16T03:01:20.355Z,11.67
2022-09-16T03:02:20.352Z,11.75
2022-09-16T03:03:20.336Z,11.77
2022-09-16T03:04:20.296Z,11.79
2022-09-16T03:05:20.289Z,11.85
2022-09-16T03:06:20.280Z,11.70
2022-09-16T03:07:20.265Z,11.59
2022-09-16T03:08:20.256Z,11.48
2022-09-16T03:09:20.322Z,11.54
2022-09-16T03:10:20.242Z,11.54
2022-09-16T03:11:20.224Z,11.46
2022-09-16T03:12:20.213Z,11.54
2022-09-16T03:13:20.200Z,11.60
2022-09-16T03:14:20.225Z,11.59
2022-09-16T03:15:20.189Z,11.59
2022-09-16T03:16:20.294Z,11.56
2022-09-16T03:17:20.169Z,11.67
2022-09-16T03:18:20.166Z,11.60
2022-09-16T03:19:20.146Z,11.62
2022-09-16T03:20:20.168Z,11.59
2022-09-16T03:21:20.127Z,11.63
2022-09-16T03:22:20.371Z,11.70
2022-09-16T03:23:20.108Z,11.56
2022-09-16T03:24:20.100Z,11.53
2022-09-16T03:25:20.114Z,11.57
2022-09-16T03:26:20.078Z,11.57
2022-09-16T03:27:20.064Z,11.59
2022-09-16T03:28:20.054Z,11.51
2022-09-16T03:29:20.047Z,11.51
2022-09-16T03:30:20.036Z,11.62
2022-09-16T03:31:20.102Z,11.63
2022-09-16T03:32:20.027Z,11.57
2022-09-16T03:33:20.011Z,11.49
2022-09-16T03:34:19.999Z,11.44
2022-09-16T03:35:19.986Z,11.63
2022-09-16T03:36:20.005Z,11.57
2022-09-16T03:37:19.967Z,11.44
2022-09-16T03:38:19.954Z,11.48
2022-09-16T03:39:19.947Z,11.45
2022-09-16T03:40:20.021Z,11.46
2022-09-16T03:41:19.942Z,11.53
2022-09-16T03:42:19.947Z,11.49
2022-09-16T03:43:19.902Z,11.54
2022-09-16T03:44:19.897Z,11.56
2022-09-16T03:45:19.888Z,11.46
2022-09-16T03:46:19.906Z,11.44
2022-09-16T03:47:19.896Z,11.49
2022-09-16T03:48:19.855Z,11.46
2022-09-16T03:49:19.846Z,11.42
2022-09-16T03:50:19.835Z,11.48
2022-09-16T03:51:19.825Z,11.42
2022-09-16T03:52:19.815Z,11.44
2022-09-16T03:53:19.840Z,11.45
2022-09-16T03:54:19.790Z,11.44
2022-09-16T03:55:19.782Z,11.39
2022-09-16T03:56:19.769Z,11.41
2022-09-16T03:57:19.761Z,11.42
2022-09-16T03:58:19.777Z,11.41
2022-09-16T03:59:19.744Z,11.36
2022-09-16T04:00:19.732Z,11.36
2022-09-16T04:01:19.759Z,11.38
2022-09-16T04:02:19.780Z,11.36
2022-09-16T04:03:19.704Z,11.36
2022-09-16T04:04:19.707Z,11.27
2022-09-16T04:05:19.697Z,11.36
2022-09-16T04:06:19.669Z,11.24
2022-09-16T04:07:19.665Z,11.24
2022-09-16T04:08:19.648Z,11.27
2022-09-16T04:09:19.678Z,11.26
2022-09-16T04:10:19.630Z,11.31
2022-09-16T04:11:19.677Z,11.33
2022-09-16T04:12:19.612Z,11.21
2022-09-16T04:13:19.599Z,11.27
2022-09-16T04:14:19.591Z,11.30
2022-09-16T04:15:19.594Z,11.21
2022-09-16T04:16:19.600Z,11.28
2022-09-16T04:17:19.565Z,11.28
2022-09-16T04:18:19.554Z,11.30
2022-09-16T04:19:19.540Z,11.28
2022-09-16T04:20:19.573Z,11.28
2022-09-16T04:21:19.514Z,11.38
2022-09-16T04:22:19.515Z,11.31
2022-09-16T04:23:19.494Z,11.31
2022-09-16T04:24:19.489Z,11.33
2022-09-16T04:25:19.494Z,11.41
2022-09-16T04:26:19.472Z,11.33
2022-09-16T04:27:19.458Z,11.35
2022-09-16T04:28:19.446Z,11.38
2022-09-16T04:29:19.441Z,11.39
2022-09-16T04:30:19.453Z,11.33
2022-09-16T04:31:19.445Z,11.38
2022-09-16T04:32:20.408Z,11.31
2022-09-16T04:33:19.398Z,11.33
2022-09-16T04:34:19.387Z,11.39
2022-09-16T04:35:19.413Z,11.38
2022-09-16T04:36:19.396Z,11.30
2022-09-16T04:37:19.355Z,11.28
2022-09-16T04:38:19.345Z,11.31
2022-09-16T04:39:19.331Z,11.35
2022-09-16T04:40:19.349Z,11.33
2022-09-16T04:41:19.341Z,11.35
2022-09-16T04:42:19.309Z,11.23
2022-09-16T04:43:19.294Z,11.27
2022-09-16T04:44:19.291Z,11.17
2022-09-16T04:45:19.280Z,11.20
2022-09-16T04:46:19.329Z,10.99
2022-09-16T04:47:19.253Z,11.13
2022-09-16T04:48:19.247Z,11.02
2022-09-16T04:49:19.235Z,11.01
2022-09-16T04:50:19.224Z,11.05
2022-09-16T04:51:19.258Z,10.98
2022-09-16T04:52:19.202Z,11.06
2022-09-16T04:53:19.194Z,11.02
2022-09-16T04:54:19.183Z,11.01
2022-09-16T04:55:19.173Z,10.91
2022-09-16T04:56:19.211Z,10.99
2022-09-16T04:57:19.152Z,10.95
2022-09-16T04:58:19.144Z,10.99
2022-09-16T04:59:19.131Z,10.87
2022-09-16T05:00:19.125Z,10.98
2022-09-16T05:01:19.149Z,10.95
2022-09-16T05:02:19.121Z,10.81
2022-09-16T05:03:19.127Z,10.88
2022-09-16T05:04:19.089Z,10.84
2022-09-16T05:05:19.079Z,10.91
2022-09-16T05:06:20.873Z,10.84
2022-09-16T05:07:20.077Z,10.88
2022-09-16T05:08:19.052Z,10.90
2022-09-16T05:09:19.039Z,10.91
2022-09-16T05:10:19.027Z,10.90
2022-09-16T05:11:19.012Z,10.80
2022-09-16T05:12:19.024Z,10.87
2022-09-16T05:13:18.993Z,10.86
2022-09-16T05:14:18.983Z,10.88
2022-09-16T05:15:18.998Z,10.98
2022-09-16T05:16:19.023Z,10.83
2022-09-16T05:17:39.450Z,11.03
2022-09-16T05:18:20.945Z,10.99
2022-09-16T05:19:18.933Z,11.01
2022-09-16T05:20:18.926Z,11.03
2022-09-16T05:21:18.915Z,11.01
2022-09-16T05:22:18.945Z,11.01
2022-09-16T05:23:18.893Z,11.01
2022-09-16T05:24:18.888Z,11.08
2022-09-16T05:25:18.874Z,11.13
2022-09-16T05:26:18.859Z,11.12
2022-09-16T05:27:18.853Z,11.09
2022-09-16T05:28:18.861Z,11.13
2022-09-16T05:29:18.831Z,11.16
2022-09-16T05:30:21.692Z,11.12
2022-09-16T05:31:19.876Z,11.11
2022-09-16T05:32:18.798Z,11.21
2022-09-16T05:33:18.895Z,11.13
2022-09-16T05:34:18.786Z,11.23
2022-09-16T05:35:18.774Z,11.21
2022-09-16T05:36:18.765Z,11.21
2022-09-16T05:37:18.753Z,11.20
2022-09-16T05:38:18.788Z,11.26
2022-09-16T05:39:23.203Z,11.26
2022-09-16T05:40:20.787Z,11.13
2022-09-16T05:41:18.716Z,11.23
2022-09-16T05:42:18.705Z,11.11
2022-09-16T05:43:18.736Z,11.17
2022-09-16T05:44:18.687Z,11.26
2022-09-16T05:45:23.711Z,11.21
2022-09-16T05:46:20.723Z,11.21
2022-09-16T05:47:18.653Z,11.23
2022-09-16T05:48:18.643Z,11.20
2022-09-16T05:49:18.738Z,11.23
2022-09-16T05:50:18.626Z,11.23
2022-09-16T05:51:20.643Z,11.30
2022-09-16T05:52:19.604Z,11.26
2022-09-16T05:53:18.597Z,11.30
2022-09-16T05:54:18.818Z,11.27
2022-09-16T05:55:18.577Z,11.35
2022-09-16T05:56:18.552Z,11.31
2022-09-16T05:57:19.553Z,11.42
2022-09-16T05:58:18.543Z,11.38
2022-09-16T05:59:18.588Z,11.35
2022-09-16T06:00:18.522Z,11.38
2022-09-16T06:01:18.582Z,11.28
2022-09-16T06:02:18.554Z,11.33
2022-09-16T06:03:18.494Z,11.36
2022-09-16T06:04:18.515Z,11.44
2022-09-16T06:05:18.556Z,11.35
2022-09-16T06:06:18.464Z,11.31
2022-09-16T06:07:18.462Z,11.30
2022-09-16T06:08:18.443Z,11.38
2022-09-16T06:09:18.468Z,11.42
2022-09-16T06:10:18.442Z,11.41
2022-09-16T06:11:18.413Z,11.39
2022-09-16T06:12:18.403Z,11.44
2022-09-16T06:13:18.395Z,11.41
2022-09-16T06:14:18.385Z,11.49
2022-09-16T06:15:18.389Z,11.51
2022-09-16T06:16:18.405Z,11.48
2022-09-16T06:17:18.357Z,11.48
2022-09-16T06:18:18.351Z,11.49
2022-09-16T06:19:18.338Z,11.46
2022-09-16T06:20:18.342Z,11.56
2022-09-16T06:21:18.402Z,11.44
2022-09-16T06:22:18.308Z,11.66
2022-09-16T06:23:18.292Z,11.67
2022-09-16T06:24:18.285Z,11.70
2022-09-16T06:25:18.288Z,11.66
2022-09-16T06:26:18.264Z,11.72
2022-09-16T06:27:18.262Z,11.74
2022-09-16T06:28:18.245Z,11.79
2022-09-16T06:29:18.239Z,11.78
2022-09-16T06:30:18.239Z,11.96
2022-09-16T06:31:18.261Z,12.01
2022-09-16T06:32:18.200Z,12.07
2022-09-16T06:33:18.190Z,12.22
2022-09-16T06:34:18.185Z,12.38
2022-09-16T06:35:18.213Z,12.61
2022-09-16T06:36:18.166Z,12.41
2022-09-16T06:37:18.235Z,12.46
2022-09-16T06:38:18.139Z,12.44
2022-09-16T06:39:18.132Z,12.52
2022-09-16T06:40:18.206Z,12.44
2022-09-16T06:41:18.109Z,12.48
2022-09-16T06:42:18.113Z,12.51
2022-09-16T06:43:18.099Z,12.43
2022-09-16T06:44:18.077Z,12.44
2022-09-16T06:45:18.067Z,12.38
2022-09-16T06:46:18.212Z,12.36
2022-09-16T06:47:18.057Z,12.37
2022-09-16T06:48:18.036Z,12.33
2022-09-16T06:49:18.025Z,12.38
2022-09-16T06:50:18.016Z,12.25
2022-09-16T06:51:18.017Z,12.33
2022-09-16T06:52:17.994Z,12.38
2022-09-16T06:53:18.062Z,12.49
2022-09-16T06:54:17.974Z,12.62
2022-09-16T06:55:17.966Z,12.66
2022-09-16T06:56:17.995Z,12.71
2022-09-16T06:57:17.948Z,12.73
2022-09-16T06:58:17.933Z,12.79
2022-09-16T06:59:17.921Z,12.77
2022-09-16T07:00:17.919Z,12.81
2022-09-16T07:01:18.009Z,12.88
2022-09-16T07:02:17.951Z,12.80
2022-09-16T07:03:17.882Z,12.84
2022-09-16T07:04:17.878Z,12.87
2022-09-16T07:05:17.866Z,12.74
2022-09-16T07:06:17.856Z,12.87
2022-09-16T07:07:17.860Z,12.76
2022-09-16T07:08:17.836Z,12.94
2022-09-16T07:09:17.913Z,12.88
2022-09-16T07:10:17.831Z,12.91
2022-09-16T07:11:17.807Z,12.96
2022-09-16T07:12:19.742Z,12.84
2022-09-16T07:13:18.782Z,12.79
2022-09-16T07:14:17.775Z,12.84
2022-09-16T07:15:17.762Z,12.92
2022-09-16T07:16:17.759Z,12.95
2022-09-16T07:17:17.760Z,13.07
2022-09-16T07:18:17.743Z,13.09
2022-09-16T07:19:17.724Z,13.10
2022-09-16T07:20:17.707Z,13.09
2022-09-16T07:21:17.710Z,13.22
2022-09-16T07:22:17.735Z,13.28
2022-09-16T07:23:17.678Z,13.24
2022-09-16T07:24:17.668Z,13.17
2022-09-16T07:25:17.735Z,13.29
2022-09-16T07:26:17.647Z,13.28
2022-09-16T07:27:17.666Z,13.25
2022-09-16T07:28:17.633Z,13.13
2022-09-16T07:29:17.614Z,13.13
2022-09-16T07:30:17.607Z,13.17
2022-09-16T07:31:17.670Z,13.10
2022-09-16T07:32:17.585Z,12.99
2022-09-16T07:33:17.588Z,13.07
2022-09-16T07:34:17.561Z,13.24
2022-09-16T07:35:17.555Z,13.28
2022-09-16T07:36:17.543Z,13.43
2022-09-16T07:37:17.542Z,13.79
2022-09-16T07:38:17.539Z,13.99
2022-09-16T07:39:17.518Z,14.59
2022-09-16T07:40:17.564Z,14.49
2022-09-16T07:41:17.572Z,14.38
2022-09-16T07:42:17.481Z,14.27
2022-09-16T07:43:17.486Z,14.20
2022-09-16T07:44:17.474Z,14.16
2022-09-16T07:45:17.448Z,14.13
2022-09-16T07:46:17.524Z,14.13
2022-09-16T07:47:21.952Z,14.09
2022-09-16T07:48:18.435Z,13.90
2022-09-16T07:49:17.407Z,13.87
2022-09-16T07:50:17.398Z,13.66
2022-09-16T07:51:17.389Z,13.62
2022-09-16T07:52:17.378Z,13.57
2022-09-16T07:53:17.424Z,13.63
2022-09-16T07:54:17.360Z,13.55
2022-09-16T07:55:17.337Z,13.55
2022-09-16T07:56:18.340Z,13.46
2022-09-16T07:57:17.406Z,13.61
2022-09-16T07:58:17.361Z,13.57
2022-09-16T07:59:18.695Z,13.57
2022-09-16T08:00:18.296Z,13.61
2022-09-16T08:01:17.327Z,13.73
2022-09-16T08:02:18.278Z,13.75
2022-09-16T08:03:17.262Z,13.73
2022-09-16T08:04:17.288Z,13.71
2022-09-16T08:05:17.244Z,13.59
2022-09-16T08:06:17.233Z,13.53
2022-09-16T08:07:17.231Z,13.51
2022-09-16T08:08:17.210Z,13.36
2022-09-16T08:10:19.196Z,13.29
2022-09-16T08:11:17.182Z,13.36
2022-09-16T08:12:17.173Z,13.31
2022-09-16T08:13:17.241Z,13.13
2022-09-16T08:14:17.164Z,13.12
2022-09-16T08:16:17.147Z,13.10
2022-09-16T08:17:17.117Z,13.22
2022-09-16T08:18:17.110Z,13.24
2022-09-16T08:19:17.132Z,13.43
2022-09-16T08:20:17.086Z,13.54
2022-09-16T08:21:17.070Z,13.62
2022-09-16T08:22:17.065Z,13.79
2022-09-16T08:23:17.054Z,13.94
2022-09-16T08:24:17.072Z,14.05
2022-09-16T08:25:17.032Z,14.21
2022-09-16T08:26:17.021Z,14.41
2022-09-16T08:27:17.022Z,14.44
2022-09-16T08:28:17.003Z,14.53
2022-09-16T08:29:17.562Z,14.53
2022-09-16T08:30:16.998Z,14.67
2022-09-16T08:31:17.014Z,14.83
2022-09-16T08:32:16.961Z,14.71
2022-09-16T08:33:16.951Z,14.78
2022-09-16T08:34:16.943Z,14.60
2022-09-16T08:35:16.962Z,14.67
2022-09-16T08:36:16.925Z,14.57
2022-09-16T08:37:16.906Z,14.42
2022-09-16T08:38:16.899Z,14.20
2022-09-16T08:39:16.889Z,14.35
2022-09-16T08:40:16.973Z,14.30
2022-09-16T08:41:16.868Z,14.26
2022-09-16T08:42:16.857Z,14.24
2022-09-16T08:43:16.850Z,14.09
2022-09-16T08:44:16.838Z,14.08
2022-09-16T08:45:16.915Z,14.09
2022-09-16T08:46:16.938Z,14.19
2022-09-16T08:47:16.810Z,14.19
2022-09-16T08:48:16.801Z,14.21
2022-09-16T08:49:16.791Z,14.24
2022-09-16T08:50:16.777Z,14.20
2022-09-16T08:51:16.784Z,14.31
2022-09-16T08:52:16.761Z,14.21
2022-09-16T08:53:16.757Z,14.12
2022-09-16T08:54:16.741Z,14.05
2022-09-16T08:55:16.731Z,14.04
2022-09-16T08:56:16.751Z,13.94
2022-09-16T08:57:16.711Z,13.83
2022-09-16T08:58:16.698Z,13.81
2022-09-16T08:59:16.687Z,13.84
2022-09-16T09:00:16.674Z,13.79
2022-09-16T09:01:16.987Z,13.72
2022-09-16T09:02:17.198Z,13.83
2022-09-16T09:03:16.644Z,13.76
2022-09-16T09:04:16.638Z,13.93
2022-09-16T09:05:16.629Z,13.81
2022-09-16T09:06:16.614Z,13.76
2022-09-16T09:07:16.648Z,13.72
2022-09-16T09:08:17.595Z,13.55
2022-09-16T09:09:16.581Z,13.55
2022-09-16T09:10:16.573Z,13.51
2022-09-16T09:11:16.562Z,13.46
2022-09-16T09:12:17.344Z,13.35
2022-09-16T09:13:17.207Z,13.29
2022-09-16T09:14:16.540Z,13.43
2022-09-16T09:15:16.526Z,13.44
2022-09-16T09:16:16.541Z,13.43
2022-09-16T09:17:16.613Z,13.53
2022-09-16T09:18:16.494Z,13.48
2022-09-16T09:19:16.481Z,13.65
2022-09-16T09:20:16.473Z,13.65
2022-09-16T09:21:16.462Z,13.87
2022-09-16T09:22:16.482Z,13.88
2022-09-16T09:23:16.457Z,13.93
2022-09-16T09:24:16.428Z,14.02
2022-09-16T09:25:16.419Z,14.11
2022-09-16T09:26:16.413Z,14.06
2022-09-16T09:27:16.447Z,14.08
2022-09-16T09:28:16.393Z,14.20
2022-09-16T09:29:16.382Z,14.23
2022-09-16T09:30:16.381Z,14.21
2022-09-16T09:31:16.393Z,14.12
2022-09-16T09:32:16.354Z,14.19
2022-09-16T09:33:41.352Z,14.19
2022-09-16T09:34:18.334Z,14.30
2022-09-16T09:35:16.325Z,14.31
2022-09-16T09:36:16.312Z,14.38
2022-09-16T09:37:16.342Z,14.45
2022-09-16T09:38:16.310Z,14.44
2022-09-16T09:39:17.287Z,14.27
2022-09-16T09:40:16.361Z,14.30
2022-09-16T09:41:16.267Z,14.16
2022-09-16T09:42:16.264Z,14.12
2022-09-16T09:43:16.288Z,14.09
2022-09-16T09:44:16.238Z,14.09
2022-09-16T09:45:16.226Z,14.05
2022-09-16T09:46:16.270Z,14.11
2022-09-16T09:47:16.214Z,14.08
2022-09-16T09:48:16.237Z,14.11
2022-09-16T09:49:16.281Z,14.30
2022-09-16T09:50:16.176Z,14.41
2022-09-16T09:51:16.165Z,14.48
2022-09-16T09:52:16.154Z,14.60
2022-09-16T09:53:16.143Z,14.82
2022-09-16T09:54:16.155Z,14.95
2022-09-16T09:55:16.436Z,15.04
2022-09-16T09:56:17.116Z,15.11
2022-09-16T09:57:16.115Z,15.13
2022-09-16T09:58:16.101Z,15.19
2022-09-16T09:59:16.106Z,15.22
2022-09-16T10:00:16.082Z,15.15
2022-09-16T10:01:16.146Z,15.07
2022-09-16T10:02:16.117Z,15.03
2022-09-16T10:03:16.051Z,15.05
2022-09-16T10:04:16.056Z,14.94
2022-09-16T10:05:16.129Z,14.82
2022-09-16T10:06:16.023Z,14.79
2022-09-16T10:07:16.017Z,14.79
2022-09-16T10:08:16.708Z,14.75
2022-09-16T10:09:16.039Z,14.82
2022-09-16T10:10:15.983Z,15.03
2022-09-16T10:11:15.975Z,14.86
2022-09-16T10:12:15.964Z,14.82
2022-09-16T10:13:15.948Z,14.91
2022-09-16T10:14:15.986Z,14.90
2022-09-16T10:15:15.935Z,15.23
2022-09-16T10:16:15.973Z,15.40
2022-09-16T10:17:15.908Z,15.76
2022-09-16T10:18:15.899Z,15.81
2022-09-16T10:19:15.887Z,15.68
2022-09-16T10:20:16.026Z,15.85
2022-09-16T10:21:15.969Z,15.95
2022-09-16T10:22:15.861Z,15.91
2022-09-16T10:23:15.849Z,15.91
2022-09-16T10:24:15.859Z,15.96
2022-09-16T10:25:15.846Z,16.17
2022-09-16T10:26:15.826Z,16.23
2022-09-16T10:27:15.807Z,16.48
2022-09-16T10:28:15.805Z,16.60
2022-09-16T10:29:15.788Z,16.55
2022-09-16T10:30:15.871Z,16.65
2022-09-16T10:31:15.798Z,16.51
2022-09-16T10:32:15.780Z,16.30
2022-09-16T10:33:15.766Z,16.27
2022-09-16T10:34:15.740Z,16.27
2022-09-16T10:35:15.770Z,16.59
2022-09-16T10:36:15.721Z,16.81
2022-09-16T10:37:15.821Z,17.12
2022-09-16T10:38:15.701Z,17.38
2022-09-16T10:39:15.695Z,17.60
2022-09-16T10:40:15.799Z,17.66
2022-09-16T10:41:15.710Z,17.74
2022-09-16T10:42:15.662Z,17.81
2022-09-16T10:43:15.677Z,17.98
2022-09-16T10:44:17.445Z,18.10
2022-09-16T10:45:16.650Z,18.25
2022-09-16T10:46:15.714Z,18.42
2022-09-16T10:47:15.615Z,18.51
2022-09-16T10:48:15.609Z,18.79
2022-09-16T10:49:15.599Z,18.69
2022-09-16T10:50:15.591Z,18.72
2022-09-16T10:51:15.597Z,18.64
2022-09-16T10:52:15.570Z,18.42
2022-09-16T10:53:15.654Z,17.77
2022-09-16T10:54:15.551Z,17.71
2022-09-16T10:55:15.542Z,17.42
2022-09-16T10:56:15.549Z,17.38
2022-09-16T10:57:15.520Z,17.00
2022-09-16T10:58:15.513Z,16.66
2022-09-16T10:59:15.504Z,16.30
2022-09-16T11:00:15.496Z,16.18
2022-09-16T11:01:17.180Z,16.08
2022-09-16T11:02:15.748Z,15.96
2022-09-16T11:03:15.470Z,15.77
2022-09-16T11:04:15.461Z,15.62
2022-09-16T11:05:15.448Z,15.67
2022-09-16T11:06:15.471Z,15.44
2022-09-16T11:07:15.433Z,15.74
2022-09-16T11:08:15.418Z,15.86
2022-09-16T11:09:15.548Z,15.77
2022-09-16T11:10:15.406Z,15.78
2022-09-16T11:11:15.394Z,16.22
2022-09-16T11:12:15.398Z,16.62
2022-09-16T11:13:15.376Z,16.91
2022-09-16T11:14:15.363Z,17.00
2022-09-16T11:15:15.355Z,16.78
2022-09-16T11:16:15.453Z,16.78
2022-09-16T11:17:15.352Z,16.55
2022-09-16T11:18:15.322Z,16.60
2022-09-16T11:19:15.318Z,16.77
2022-09-16T11:20:15.308Z,16.59
2022-09-16T11:21:15.295Z,16.25
2022-09-16T11:22:15.308Z,16.40
2022-09-16T11:23:15.276Z,16.52
2022-09-16T11:24:15.269Z,16.50
2022-09-16T11:25:15.352Z,16.45
2022-09-16T11:26:15.257Z,16.47
2022-09-16T11:27:15.308Z,16.59
2022-09-16T11:28:15.242Z,16.59
2022-09-16T11:29:15.221Z,16.34
2022-09-16T11:30:15.213Z,15.98
2022-09-16T11:31:15.251Z,15.93
2022-09-16T11:32:15.194Z,15.92
2022-09-16T11:33:15.899Z,15.88
2022-09-16T11:34:15.179Z,15.70
2022-09-16T11:35:15.168Z,15.60
2022-09-16T11:36:15.157Z,15.52
2022-09-16T11:37:15.152Z,15.41
2022-09-16T11:38:15.153Z,15.38
2022-09-16T11:39:15.128Z,15.30
2022-09-16T11:40:15.206Z,15.40
2022-09-16T11:41:15.223Z,15.44
2022-09-16T11:42:15.103Z,15.52
2022-09-16T11:43:15.133Z,15.81
2022-09-16T11:44:15.077Z,15.95
2022-09-16T11:45:15.070Z,16.04
2022-09-16T11:46:15.174Z,15.93
2022-09-16T11:47:15.049Z,15.62
2022-09-16T11:48:15.080Z,15.78
2022-09-16T11:49:15.039Z,15.96
2022-09-16T11:50:15.026Z,16.04
2022-09-16T11:51:15.010Z,16.11
2022-09-16T11:52:14.998Z,16.08
2022-09-16T11:53:16.388Z,16.47
2022-09-16T11:54:15.021Z,16.57
2022-09-16T11:55:14.973Z,16.82
2022-09-16T11:56:14.966Z,16.84
2022-09-16T11:57:15.284Z,16.92
2022-09-16T11:58:14.944Z,17.02
2022-09-16T11:59:14.975Z,17.15
2022-09-16T12:00:14.920Z,16.96
2022-09-16T12:01:14.948Z,17.05
2022-09-16T12:02:14.933Z,17.15
2022-09-16T12:03:14.925Z,17.14
2022-09-16T12:04:14.927Z,17.24
2022-09-16T12:05:14.883Z,17.53
2022-09-16T12:06:14.865Z,17.73
2022-09-16T12:07:14.899Z,17.65
2022-09-16T12:08:14.847Z,17.73
2022-09-16T12:09:14.842Z,17.73
2022-09-16T12:10:14.883Z,17.86
2022-09-16T12:11:14.817Z,17.76
2022-09-16T12:12:14.794Z,17.92
2022-09-16T12:13:15.913Z,17.94
2022-09-16T12:14:14.793Z,18.05
2022-09-16T12:15:14.855Z,18.21
2022-09-16T12:16:14.762Z,18.11
2022-09-16T12:17:14.756Z,18.02
2022-09-16T12:18:14.746Z,18.10
2022-09-16T12:19:14.742Z,18.25
2022-09-16T12:20:14.731Z,18.09
2022-09-16T12:21:14.746Z,18.11
2022-09-16T12:22:14.708Z,18.05
2022-09-16T12:23:14.696Z,18.16
2022-09-16T12:24:14.687Z,18.29
2022-09-16T12:25:14.683Z,18.29
2022-09-16T12:26:14.701Z,18.34
2022-09-16T12:27:14.665Z,18.20
2022-09-16T12:28:14.656Z,18.11
2022-09-16T12:29:14.729Z,18.17
2022-09-16T12:30:14.631Z,18.07
2022-09-16T12:31:14.681Z,18.07
2022-09-16T12:32:14.652Z,18.02
2022-09-16T12:33:14.609Z,17.77
2022-09-16T12:34:14.593Z,17.77
2022-09-16T12:35:14.582Z,17.83
2022-09-16T12:36:14.574Z,17.86
2022-09-16T12:37:14.596Z,18.04
2022-09-16T12:38:14.553Z,18.05
2022-09-16T12:39:15.540Z,17.87
2022-09-16T12:40:14.574Z,18.04
2022-09-16T12:41:14.523Z,18.17
2022-09-16T12:42:14.517Z,18.21
2022-09-16T12:43:14.550Z,18.04
2022-09-16T12:44:33.486Z,17.77
2022-09-16T12:45:16.581Z,17.63
2022-09-16T12:46:14.511Z,17.53
2022-09-16T12:47:14.471Z,17.24
2022-09-16T12:48:14.490Z,17.06
2022-09-16T12:49:14.447Z,17.06
2022-09-16T12:50:14.451Z,17.24
2022-09-16T12:51:14.446Z,17.28
2022-09-16T12:52:14.417Z,17.49
2022-09-16T12:53:14.409Z,17.60
2022-09-16T12:54:14.439Z,17.80